KCZ weather

Kochi Airport (高知空港)
Nankoku, Kōchi Prefecture, Japan

Public forecast

Using degrees Celsius for public forecast. Weather courtesy of forecast.io.

Closest aviation weather report (METAR) to Kochi Airport (高知空港)

Closest report is Kōchi Ryōma Airport, 0.0 nm (0.0 km) SSE. Retrieved 2019/10/21 07:00 UTC (14 minutes ago):

RJOK 210700Z 01005KT 9999 -RA FEW005 SCT050 BKN080 20/16 Q1009

Closest aviation forecast (TAF) to Kochi Airport (高知空港)

Closest forecast is Kōchi Ryōma Airport, 0.0 nm (0.0 km) SSE. Retrieved 2019/10/21 06:30 UTC (44 minutes ago):

TAF RJOK 210507Z 2106/2212 35008KT 9999 FEW010 SCT025 BKN040 TEMPO 2106/2110 4000 SHRA BR BECMG 2108/2110 35020KT TEMPO 2110/2113 35022G33KT BECMG 2114/2116 35008KT